LTAG/ADF METAR and TAF weather

Enter ICAO airport designator
Station Type Date Time Source
LTAG METAR 2022/06/27 17:50 UTC NOAA

LTAG 271750Z 19004KT 9999 SCT035 25/20 Q1007 NOSIG


Station Type Date Time Source
LTAG Decoded METAR 2022/06/27 17:50 UTC NOAA

Adana / Incirlik, Turkey (LTAG) 37-00N 035-25E 66M
Jun 27, 2022 - 01:50 PM EDT / 2022.06.27 1750 UTC
Wind: from the S (190 degrees) at 5 MPH (4 KT):0
Visibility: greater than 7 mile(s):0
Sky conditions: partly cloudy
Temperature: 77 F (25 C)
Dew Point: 68 F (20 C)
Relative Humidity: 73%
Pressure (altimeter): 29.74 in. Hg (1007 hPa)
ob: LTAG 271750Z 19004KT 9999 SCT035 25/20 Q1007 NOSIG
cycle: 18

Station Type Date Time Source
LTAG TAF 2022/06/27 18:03 UTC NOAA

TAF TAF LTAG 271640Z 2718/2818 VRB02KT 9999 SCT035
BECMG 2808/2810 22012KT PROB30
TEMPO 2809/2812 -TSRA FEW025CB BKN030
BECMG 2814/2816 VRB02KT

Example: see airport list